Startpagina
METAR-TAF:

METAR-TAF

Vliegvelden :

Mauritius, Mauritius

breedte: 20-26S, lengte: 057-40E, hoogte: 55 m

Actueel weer

Dit bericht is 2 uur en het 7 minuten geleden gemaakt, om 20:00 UTC
Wind 4 kt uit het westen
Temperatuur 21°C
Vochtigheid 88%
Druk 1019 hPa
Zicht 10 km of meer
Verspreide wolken op 1600 ft

METAR: FIMP 162000Z 26004KT 9999 SCT016 21/19 Q1019

Tijdstip: 02:07 (22:07 UTC)

Verwachting

Dit bericht is 4 uur en het 37 minuten geleden gemaakt, om 17:30 UTC
Verwachting geldig van 16 om 18 UTC tot 18 om 00 UTC
Wind 5 kt uit het zuidzuidwesten
Zicht 10 km of meer
Verspreide wolken op 1500 ft
Wijzigt naar
van 17 om 06 UTC tot 17 om 08 UTC
Wind 10 kt uit het zuiden
Tijdelijke
van 17 om 10 UTC tot 17 om 21 UTC
Wind 20 kt uit het zuiden met uitschieters tot 30 kt
Zicht: 5000 m
Weinig wolken op 500 ft
Gebroken wolken op 1400 ft
Gebroken wolken op 5000 ft
lichte regenbuien

TAF: FIMP 161730Z 1618/1800 21005KT 9999 SCT015 BECMG 1706/1708 18010KT TEMPO 1710/1721 18020G30KT 5000 -SHRA FEW005 BKN014 BKN050

Waarnemingen en weersverwachtingen van meer dan 4000 vliegvelden (METAR en TAF).

De beschikbare stations zijn de gele en rode punten op de kaart.

Ga met uw muis naar het station om de naam te zien.

Klik dan om waarnemingen en weersverwachtingen te zien.

kaart wijzigen: klik op de groene knoppen met een zwart kruis om in te zoomen, op de groene knop met een streepje om uit te zoomen of op de groene pijlen voor aangrenzende kaarten.


METAR-TAF: